Time,TemperatureF,DewpointF,PressureIn,WindDirection,WindDirectionDegrees,WindSpeedMPH,WindSpeedGustMPH,Humidity,HourlyPrecipIn,Conditions,Clouds,dailyrainin,SoftwareType,DateUTC
2013-02-06 00:01:00,24.9,18.4,29.86,South,191,0.0,0.0,76,0.00,,,0.00,WeatherDisplay:10.37,2013-02-06 05:01:00,
2013-02-06 00:02:00,24.9,18.4,29.86,South,191,0.0,0.0,76,0.00,,,0.00,WeatherDisplay:10.37,2013-02-06 05:02:00,
2013-02-06 00:03:00,24.9,18.4,29.86,SSW,192,0.8,3.5,76,0.00,,,0.00,WeatherDisplay:10.37,2013-02-06 05:03:00,
2013-02-06 00:08:00,25.0,18.5,29.86,SSW,200,1.9,3.5,76,0.00,,,0.00,WeatherDisplay:10.37,2013-02-06 05:08:00,
2013-02-06 00:13:00,25.2,20.5,29.86,SW,218,3.3,4.6,82,0.00,,,0.00,WeatherDisplay:10.37,2013-02-06 05:13:00,
2013-02-06 00:18:00,25.4,18.9,29.87,South,190,0.0,0.0,76,0.00,,,0.00,WeatherDisplay:10.37,2013-02-06 05:18:00,
2013-02-06 00:23:00,25.6,19.1,29.86,SSW,205,1.6,3.5,76,0.00,,,0.00,WeatherDisplay:10.37,2013-02-06 05:23:00,
2013-02-06 00:29:00,25.8,19.0,29.87,South,178,3.1,4.6,75,0.00,,,0.00,WeatherDisplay:10.37,2013-02-06 05:29:00,
2013-02-06 00:34:00,25.8,18.7,29.86,SW,221,4.1,8.1,74,0.00,,,0.00,WeatherDisplay:10.37,2013-02-06 05:34:00,
2013-02-06 00:39:00,25.9,18.7,29.87,WSW,252,7.1,11.5,74,0.00,,,0.00,WeatherDisplay:10.37,2013-02-06 05:39:00,
2013-02-06 00:44:00,25.9,19.1,29.87,SSW,196,2.2,4.0,75,0.00,,,0.00,WeatherDisplay:10.37,2013-02-06 05:44:00,
2013-02-06 00:50:00,25.8,19.0,29.87,SSW,195,2.3,8.1,75,0.00,,,0.00,WeatherDisplay:10.37,2013-02-06 05:50:00,
2013-02-06 00:55:00,25.7,19.5,29.87,SSW,205,6.8,11.5,77,0.00,,,0.00,WeatherDisplay:10.37,2013-02-06 05:55:00,
2013-02-06 01:00:00,25.5,19.6,29.87,SW,235,6.6,9.2,78,0.00,CLR,,0.00,WeatherDisplay:10.37,2013-02-06 06:00:00,
2013-02-06 01:05:00,25.4,19.8,29.87,WSW,244,3.8,6.9,79,0.00,CLR,,0.00,WeatherDisplay:10.37,2013-02-06 06:05:00,
2013-02-06 01:11:00,25.3,19.7,29.87,South,185,2.4,3.5,79,0.00,CLR,,0.00,WeatherDisplay:10.37,2013-02-06 06:11:00,
2013-02-06 01:16:00,25.3,19.7,29.87,SSW,208,2.7,3.5,79,0.00,CLR,,0.00,WeatherDisplay:10.37,2013-02-06 06:16:00,
2013-02-06 01:21:00,25.2,19.9,29.87,South,186,4.0,6.9,80,0.00,CLR,,0.00,WeatherDisplay:10.37,2013-02-06 06:21:00,
2013-02-06 01:26:00,25.2,20.2,29.87,South,172,0.0,1.0,81,0.00,CLR,,0.00,WeatherDisplay:10.37,2013-02-06 06:26:00,
2013-02-06 01:31:00,25.1,20.1,29.87,SSW,197,3.3,6.9,81,0.00,CLR,,0.00,WeatherDisplay:10.37,2013-02-06 06:31:00,
2013-02-06 01:37:00,25.1,20.1,29.87,SW,214,2.5,4.6,81,0.00,CLR,,0.00,WeatherDisplay:10.37,2013-02-06 06:37:00,
2013-02-06 01:42:00,25.1,20.1,29.87,SW,231,2.3,5.8,81,0.00,CLR,,0.00,WeatherDisplay:10.37,2013-02-06 06:42:00,
2013-02-06 01:47:00,25.2,20.2,29.87,SSW,206,1.2,5.8,81,0.00,CLR,,0.00,WeatherDisplay:10.37,2013-02-06 06:47:00,
2013-02-06 01:52:00,25.2,20.2,29.88,WSW,238,2.5,3.5,81,0.00,CLR,,0.00,WeatherDisplay:10.37,2013-02-06 06:52:00,
2013-02-06 01:58:00,25.2,20.2,29.88,SW,221,3.2,6.0,81,0.00,CLR,,0.00,WeatherDisplay:10.37,2013-02-06 06:58:00,
2013-02-06 02:03:00,25.3,20.3,29.88,South,179,2.8,5.8,81,0.00,CLR,,0.00,WeatherDisplay:10.37,2013-02-06 07:03:00,
2013-02-06 02:08:00,25.4,20.1,29.88,SSW,213,3.3,4.6,80,0.00,CLR,,0.00,WeatherDisplay:10.37,2013-02-06 07:08:00,
2013-02-06 02:13:00,25.4,20.1,29.88,South,189,2.2,4.6,80,0.00,CLR,,0.00,WeatherDisplay:10.37,2013-02-06 07:13:00,
2013-02-06 02:19:00,25.5,20.2,29.88,SSW,204,3.3,5.8,80,0.00,CLR,,0.00,WeatherDisplay:10.37,2013-02-06 07:19:00,
2013-02-06 02:24:00,25.5,20.2,29.89,SSW,198,0.8,3.5,80,0.00,CLR,,0.00,WeatherDisplay:10.37,2013-02-06 07:24:00,
2013-02-06 02:29:00,25.5,20.2,29.89,WSW,242,0.6,3.0,80,0.00,CLR,,0.00,WeatherDisplay:10.37,2013-02-06 07:29:00,
2013-02-06 02:34:00,25.5,20.2,29.89,SW,219,0.0,3.5,80,0.00,CLR,,0.00,WeatherDisplay:10.37,2013-02-06 07:34:00,
2013-02-06 02:39:00,25.5,20.5,29.89,South,190,1.0,2.3,81,0.00,CLR,,0.00,WeatherDisplay:10.37,2013-02-06 07:39:00,
2013-02-06 02:45:00,25.6,20.6,29.89,SSW,199,1.0,3.5,81,0.00,CLR,,0.00,WeatherDisplay:10.37,2013-02-06 07:45:00,
2013-02-06 02:50:00,25.6,20.6,29.89,SW,224,0.4,3.5,81,0.00,CLR,,0.00,WeatherDisplay:10.37,2013-02-06 07:50:00,
2013-02-06 02:55:00,25.6,20.6,29.90,SW,221,0.0,0.0,81,0.00,CLR,,0.00,WeatherDisplay:10.37,2013-02-06 07:55:00,
2013-02-06 03:00:00,25.6,20.6,29.90,SSW,205,1.8,3.5,81,0.00,CLR,,0.00,WeatherDisplay:10.37,2013-02-06 08:00:00,
2013-02-06 03:05:00,25.7,21.0,29.90,South,188,1.4,3.5,82,0.00,CLR,,0.00,WeatherDisplay:10.37,2013-02-06 08:05:00,
2013-02-06 03:11:00,25.8,21.1,29.90,SW,226,0.4,0.0,82,0.00,CLR,,0.00,WeatherDisplay:10.37,2013-02-06 08:11:00,
2013-02-06 03:16:00,25.9,21.2,29.90,SW,215,3.5,4.6,82,0.00,CLR,,0.00,WeatherDisplay:10.37,2013-02-06 08:16:00,
2013-02-06 03:21:00,26.1,21.4,29.89,SSW,194,1.1,4.6,82,0.00,CLR,,0.00,WeatherDisplay:10.37,2013-02-06 08:21:00,
2013-02-06 03:26:00,26.2,21.5,29.89,South,180,3.4,5.8,82,0.00,CLR,,0.00,WeatherDisplay:10.37,2013-02-06 08:26:00,
2013-02-06 03:31:00,26.3,21.8,29.89,SSW,211,1.3,3.5,83,0.00,CLR,,0.00,WeatherDisplay:10.37,2013-02-06 08:31:00,
2013-02-06 03:37:00,26.5,22.0,29.90,SSW,209,1.3,3.5,83,0.00,CLR,,0.00,WeatherDisplay:10.37,2013-02-06 08:37:00,
2013-02-06 03:42:00,26.5,22.0,29.90,SSW,197,3.3,4.6,83,0.00,CLR,,0.00,WeatherDisplay:10.37,2013-02-06 08:42:00,
2013-02-06 03:47:00,26.6,22.1,29.90,SW,223,5.6,9.0,83,0.00,CLR,,0.00,WeatherDisplay:10.37,2013-02-06 08:47:00,
2013-02-06 03:52:00,26.7,22.2,29.90,WSW,254,0.7,3.5,83,0.00,CLR,,0.00,WeatherDisplay:10.37,2013-02-06 08:52:00,
2013-02-06 03:57:00,26.7,22.2,29.90,SSW,211,0.3,6.9,83,0.00,CLR,,0.00,WeatherDisplay:10.37,2013-02-06 08:57:00,
2013-02-06 04:04:00,26.8,22.3,29.90,WSW,242,3.5,8.0,83,0.00,CLR,,0.00,WeatherDisplay:10.37,2013-02-06 09:04:00,
2013-02-06 04:10:00,26.9,22.4,29.90,SW,228,0.2,2.3,83,0.00,CLR,,0.00,WeatherDisplay:10.37,2013-02-06 09:10:00,
2013-02-06 04:15:00,26.9,22.4,29.91,SW,236,2.5,5.8,83,0.00,CLR,,0.00,WeatherDisplay:10.37,2013-02-06 09:15:00,
2013-02-06 04:20:00,26.9,22.7,29.91,SW,226,3.8,5.8,84,0.00,CLR,,0.00,WeatherDisplay:10.37,2013-02-06 09:20:00,
2013-02-06 04:25:00,26.9,22.7,29.91,WSW,238,5.4,5.8,84,0.00,CLR,,0.00,WeatherDisplay:10.37,2013-02-06 09:25:00,
2013-02-06 04:30:00,26.9,22.7,29.91,South,170,1.0,3.5,84,0.00,CLR,,0.00,WeatherDisplay:10.37,2013-02-06 09:30:00,
2013-02-06 04:36:00,26.9,22.7,29.92,SSW,205,0.0,0.0,84,0.00,CLR,,0.00,WeatherDisplay:10.37,2013-02-06 09:36:00,
2013-02-06 04:41:00,26.9,23.0,29.92,SSW,210,2.8,4.6,85,0.00,CLR,,0.00,WeatherDisplay:10.37,2013-02-06 09:41:00,
2013-02-06 04:46:00,26.9,23.0,29.92,WSW,246,3.3,3.5,85,0.00,CLR,,0.00,WeatherDisplay:10.37,2013-02-06 09:46:00,
2013-02-06 04:51:00,26.9,23.0,29.93,SW,226,3.0,4.6,85,0.00,CLR,,0.00,WeatherDisplay:10.37,2013-02-06 09:51:00,
2013-02-06 04:56:00,26.9,23.0,29.93,South,188,0.8,3.0,85,0.00,CLR,,0.00,WeatherDisplay:10.37,2013-02-06 09:56:00,
2013-02-06 05:02:00,26.9,23.0,29.93,SSW,209,3.8,6.9,85,0.00,CLR,,0.00,WeatherDisplay:10.37,2013-02-06 10:02:00,
2013-02-06 05:07:00,27.0,23.1,29.94,SW,231,5.8,10.4,85,0.00,CLR,,0.00,WeatherDisplay:10.37,2013-02-06 10:07:00,
2013-02-06 05:12:00,27.0,23.1,29.94,SW,234,0.6,3.5,85,0.00,CLR,,0.00,WeatherDisplay:10.37,2013-02-06 10:12:00,
2013-02-06 05:17:00,27.0,23.1,29.94,SW,232,5.9,5.9,85,0.00,CLR,,0.00,WeatherDisplay:10.37,2013-02-06 10:17:00,
2013-02-06 05:23:00,27.0,23.1,29.94,SW,222,1.9,3.5,85,0.00,CLR,,0.00,WeatherDisplay:10.37,2013-02-06 10:23:00,
2013-02-06 05:28:00,27.0,23.4,29.95,WSW,252,3.0,5.8,86,0.00,CLR,,0.00,WeatherDisplay:10.37,2013-02-06 10:28:00,
2013-02-06 05:33:00,26.9,23.3,29.95,SW,220,3.7,6.0,86,0.00,CLR,,0.00,WeatherDisplay:10.37,2013-02-06 10:33:00,
2013-02-06 05:38:00,26.9,23.3,29.95,SW,215,3.5,8.1,86,0.00,CLR,,0.00,WeatherDisplay:10.37,2013-02-06 10:38:00,
2013-02-06 05:43:00,26.8,23.4,29.95,SW,227,2.7,2.7,87,0.00,CLR,,0.00,WeatherDisplay:10.37,2013-02-06 10:43:00,
2013-02-06 05:49:00,26.6,23.5,29.96,SW,227,0.2,2.3,88,0.00,CLR,,0.00,WeatherDisplay:10.37,2013-02-06 10:49:00,
2013-02-06 05:54:00,26.5,23.4,29.96,SSW,207,2.4,6.9,88,0.00,CLR,,0.00,WeatherDisplay:10.37,2013-02-06 10:54:00,
2013-02-06 05:59:00,26.5,23.4,29.96,SW,218,0.0,2.3,88,0.00,CLR,,0.00,WeatherDisplay:10.37,2013-02-06 10:59:00,
2013-02-06 06:04:00,26.5,23.4,29.97,SW,226,1.1,3.5,88,0.00,CLR,,0.00,WeatherDisplay:10.37,2013-02-06 11:04:00,
2013-02-06 06:10:00,26.5,23.4,29.97,WSW,243,0.0,0.0,88,0.00,CLR,,0.00,WeatherDisplay:10.37,2013-02-06 11:10:00,
2013-02-06 06:15:00,26.5,23.4,29.97,SW,235,1.0,3.5,88,0.00,CLR,,0.00,WeatherDisplay:10.37,2013-02-06 11:15:00,
2013-02-06 06:20:00,26.5,23.4,29.98,SW,229,3.1,5.8,88,0.00,CLR,,0.00,WeatherDisplay:10.37,2013-02-06 11:20:00,
2013-02-06 06:25:00,26.6,23.3,29.98,West,263,1.6,5.8,87,0.00,CLR,,0.00,WeatherDisplay:10.37,2013-02-06 11:25:00,
2013-02-06 06:30:00,26.6,23.0,29.98,SSW,210,1.1,6.9,86,0.00,CLR,,0.00,WeatherDisplay:10.37,2013-02-06 11:30:00,
2013-02-06 06:36:00,26.7,22.8,29.98,South,183,2.6,3.5,85,0.00,CLR,,0.00,WeatherDisplay:10.37,2013-02-06 11:36:00,
2013-02-06 06:41:00,26.7,22.5,29.99,SW,217,2.4,4.0,84,0.00,CLR,,0.00,WeatherDisplay:10.37,2013-02-06 11:41:00,
2013-02-06 06:46:00,26.8,22.3,29.99,SW,216,0.9,2.3,83,0.00,CLR,,0.00,WeatherDisplay:10.37,2013-02-06 11:46:00,
2013-02-06 06:51:00,26.9,22.1,29.99,SW,225,3.1,4.0,82,0.00,CLR,,0.00,WeatherDisplay:10.37,2013-02-06 11:51:00,
2013-02-06 06:57:00,26.8,22.0,30.00,NW,309,1.5,5.0,82,0.00,CLR,,0.00,WeatherDisplay:10.37,2013-02-06 11:57:00,
2013-02-06 07:02:00,26.7,22.2,30.00,SW,232,1.6,6.9,83,0.00,CLR,,0.00,WeatherDisplay:10.37,2013-02-06 12:02:00,
2013-02-06 07:07:00,26.6,22.1,30.00,West,267,0.3,2.3,83,0.00,CLR,,0.00,WeatherDisplay:10.37,2013-02-06 12:07:00,
2013-02-06 07:12:00,26.5,22.3,30.00,SW,230,0.6,2.3,84,0.00,CLR,,0.00,WeatherDisplay:10.37,2013-02-06 12:12:00,
2013-02-06 07:17:00,26.3,22.4,30.01,South,190,1.1,4.6,85,0.00,CLR,,0.00,WeatherDisplay:10.37,2013-02-06 12:17:00,
2013-02-06 07:23:00,26.2,22.6,30.01,WSW,245,0.3,3.5,86,0.00,CLR,,0.00,WeatherDisplay:10.37,2013-02-06 12:23:00,
2013-02-06 07:28:00,26.1,22.5,30.01,SW,219,1.0,3.5,86,0.00,CLR,,0.00,WeatherDisplay:10.37,2013-02-06 12:28:00,
2013-02-06 07:33:00,26.0,22.4,30.02,WSW,252,1.2,3.5,86,0.00,CLR,,0.00,WeatherDisplay:10.37,2013-02-06 12:33:00,
2013-02-06 07:38:00,25.9,22.6,30.03,WSW,253,0.4,3.5,87,0.00,CLR,,0.00,WeatherDisplay:10.37,2013-02-06 12:38:00,
2013-02-06 07:43:00,25.6,22.5,30.03,SW,232,1.4,5.8,88,0.00,CLR,,0.00,WeatherDisplay:10.37,2013-02-06 12:43:00,
2013-02-06 07:49:00,25.2,22.1,30.04,WSW,245,2.6,8.0,88,0.00,CLR,,0.00,WeatherDisplay:10.37,2013-02-06 12:49:00,
2013-02-06 07:54:00,24.8,21.8,30.05,NW,326,0.6,4.0,88,0.00,CLR,,0.00,WeatherDisplay:10.37,2013-02-06 12:54:00,
2013-02-06 07:59:00,24.7,21.9,30.05,NW,313,0.0,0.0,89,0.00,CLR,,0.00,WeatherDisplay:10.37,2013-02-06 12:59:00,
2013-02-06 08:04:00,24.7,21.9,30.06,West,267,4.8,8.1,89,0.00,CLR,,0.00,WeatherDisplay:10.37,2013-02-06 13:04:00,
2013-02-06 08:09:00,24.7,21.4,30.06,WNW,293,0.3,4.6,87,0.00,CLR,,0.00,WeatherDisplay:10.37,2013-02-06 13:09:00,
2013-02-06 08:14:00,24.6,21.0,30.07,West,266,0.0,5.8,86,0.00,CLR,,0.00,WeatherDisplay:10.37,2013-02-06 13:14:00,
2013-02-06 08:20:00,24.5,20.1,30.07,SW,225,2.2,3.5,83,0.00,CLR,,0.00,WeatherDisplay:10.37,2013-02-06 13:20:00,
2013-02-06 08:25:00,24.5,19.5,30.08,North,360,0.5,3.5,81,0.00,CLR,,0.00,WeatherDisplay:10.37,2013-02-06 13:25:00,
2013-02-06 08:30:00,24.6,18.7,30.08,North,360,5.6,11.5,78,0.00,CLR,,0.00,WeatherDisplay:10.37,2013-02-06 13:30:00,
2013-02-06 08:35:00,24.6,17.8,30.09,NNW,336,2.7,9.2,75,0.00,CLR,,0.00,WeatherDisplay:10.37,2013-02-06 13:35:00,
2013-02-06 08:41:00,24.7,17.0,30.09,WNW,300,3.9,6.9,72,0.00,CLR,,0.00,WeatherDisplay:10.37,2013-02-06 13:41:00,
2013-02-06 08:46:00,24.8,18.3,30.09,NW,304,3.5,9.2,76,0.00,CLR,,0.00,WeatherDisplay:10.37,2013-02-06 13:46:00,
2013-02-06 08:51:00,24.9,16.8,30.10,NNW,341,0.8,3.5,71,0.00,CLR,,0.00,WeatherDisplay:10.37,2013-02-06 13:51:00,
2013-02-06 08:56:00,25.1,16.7,30.10,WNW,285,4.6,6.0,70,0.00,CLR,,0.00,WeatherDisplay:10.37,2013-02-06 13:56:00,
2013-02-06 09:01:00,25.0,16.6,30.11,West,275,2.4,8.1,70,0.00,CLR,,0.00,WeatherDisplay:10.37,2013-02-06 14:01:00,
2013-02-06 09:07:00,25.0,16.6,30.10,ESE,121,6.2,11.5,70,0.00,CLR,,0.00,WeatherDisplay:10.37,2013-02-06 14:07:00,
2013-02-06 09:12:00,24.9,16.5,30.11,NNW,327,4.4,9.2,70,0.00,CLR,,0.00,WeatherDisplay:10.37,2013-02-06 14:12:00,
2013-02-06 09:17:00,24.9,16.5,30.11,NW,321,0.1,3.5,70,0.00,CLR,,0.00,WeatherDisplay:10.37,2013-02-06 14:17:00,
2013-02-06 09:22:00,25.1,16.7,30.11,WSW,244,0.1,1.1,70,0.00,CLR,,0.00,WeatherDisplay:10.37,2013-02-06 14:22:00,
2013-02-06 09:27:00,25.2,16.1,30.11,SW,221,5.1,11.5,68,0.00,CLR,,0.00,WeatherDisplay:10.37,2013-02-06 14:27:00,
2013-02-06 09:32:00,25.2,16.5,30.12,WSW,246,5.2,11.5,69,0.00,CLR,,0.00,WeatherDisplay:10.37,2013-02-06 14:32:00,
2013-02-06 09:38:00,25.3,16.5,30.12,WSW,250,1.9,4.6,69,0.00,CLR,,0.00,WeatherDisplay:10.37,2013-02-06 14:38:00,
2013-02-06 09:43:00,25.5,16.4,30.13,NW,313,4.2,6.9,68,0.00,CLR,,0.00,WeatherDisplay:10.37,2013-02-06 14:43:00,
2013-02-06 09:48:00,25.5,16.1,30.13,NNW,333,5.9,10.4,67,0.00,CLR,,0.00,WeatherDisplay:10.37,2013-02-06 14:48:00,
2013-02-06 09:53:00,25.5,16.1,30.13,West,279,3.5,6.9,67,0.00,CLR,,0.00,WeatherDisplay:10.37,2013-02-06 14:53:00,
2013-02-06 09:59:00,25.4,16.0,30.13,West,271,2.9,5.8,67,0.00,CLR,,0.00,WeatherDisplay:10.37,2013-02-06 14:59:00,
2013-02-06 10:04:00,25.6,16.5,30.13,West,261,1.2,3.5,68,0.00,CLR,,0.00,WeatherDisplay:10.37,2013-02-06 15:04:00,
2013-02-06 10:09:00,25.7,17.3,30.14,WNW,299,2.0,5.8,70,0.00,CLR,,0.00,WeatherDisplay:10.37,2013-02-06 15:09:00,
2013-02-06 10:14:00,25.2,17.8,30.14,North,355,4.5,8.1,73,0.00,CLR,,0.00,WeatherDisplay:10.37,2013-02-06 15:14:00,
2013-02-06 10:19:00,24.7,18.2,30.15,NNW,346,0.8,6.9,76,0.00,CLR,,0.00,WeatherDisplay:10.37,2013-02-06 15:19:00,
2013-02-06 10:25:00,23.9,18.0,30.16,North,360,5.3,9.2,78,0.00,CLR,,0.00,WeatherDisplay:10.37,2013-02-06 15:25:00,
2013-02-06 10:30:00,23.2,17.9,30.16,NW,306,4.5,5.8,80,0.00,CLR,,0.00,WeatherDisplay:10.37,2013-02-06 15:30:00,
2013-02-06 10:35:00,23.0,18.0,30.16,NNE,22,3.4,6.9,81,0.00,CLR,,0.00,WeatherDisplay:10.37,2013-02-06 15:35:00,
2013-02-06 10:40:00,22.9,17.7,30.17,West,277,3.1,6.0,80,0.00,CLR,,0.00,WeatherDisplay:10.37,2013-02-06 15:40:00,
2013-02-06 10:46:00,22.9,17.4,30.17,NW,319,0.6,3.5,79,0.00,CLR,,0.00,WeatherDisplay:10.37,2013-02-06 15:46:00,
2013-02-06 10:51:00,23.1,17.3,30.18,WNW,300,2.2,5.8,78,0.00,CLR,,0.00,WeatherDisplay:10.37,2013-02-06 15:51:00,
2013-02-06 10:56:00,23.4,17.3,30.18,NW,307,0.9,4.6,77,0.00,CLR,,0.00,WeatherDisplay:10.37,2013-02-06 15:56:00,
2013-02-06 11:01:00,23.5,16.4,30.18,NNW,341,3.4,5.8,74,0.00,CLR,,0.00,WeatherDisplay:10.37,2013-02-06 16:01:00,
2013-02-06 11:07:00,23.5,16.4,30.18,NW,311,2.7,3.5,74,0.00,CLR,,0.00,WeatherDisplay:10.37,2013-02-06 16:07:00,
2013-02-06 11:12:00,23.4,16.6,30.19,WNW,298,2.3,4.6,75,0.00,CLR,,0.00,WeatherDisplay:10.37,2013-02-06 16:12:00,
2013-02-06 11:17:00,23.3,16.2,30.19,NW,315,4.6,9.2,74,0.00,CLR,,0.00,WeatherDisplay:10.37,2013-02-06 16:17:00,
2013-02-06 11:22:00,23.1,16.0,30.19,WNW,293,4.1,5.8,74,0.00,CLR,,0.00,WeatherDisplay:10.37,2013-02-06 16:22:00,
2013-02-06 11:27:00,23.1,16.4,30.19,NW,325,0.0,3.5,75,0.00,CLR,,0.00,WeatherDisplay:10.37,2013-02-06 16:27:00,
2013-02-06 11:33:00,23.5,17.0,30.19,WNW,288,0.5,3.5,76,0.00,CLR,,0.00,WeatherDisplay:10.37,2013-02-06 16:33:00,
2013-02-06 11:38:00,23.3,16.2,30.20,NW,311,5.7,11.5,74,0.00,CLR,,0.00,WeatherDisplay:10.37,2013-02-06 16:38:00,
2013-02-06 11:43:00,23.0,15.9,30.19,NNW,328,1.5,3.5,74,0.00,CLR,,0.00,WeatherDisplay:10.37,2013-02-06 16:43:00,
2013-02-06 11:48:00,23.3,16.2,30.20,NNW,344,3.6,5.8,74,0.00,CLR,,0.00,WeatherDisplay:10.37,2013-02-06 16:48:00,
2013-02-06 11:53:00,23.2,16.1,30.20,WNW,303,1.4,8.1,74,0.00,CLR,,0.00,WeatherDisplay:10.37,2013-02-06 16:53:00,
2013-02-06 11:59:00,23.3,15.6,30.20,WNW,294,2.4,3.5,72,0.00,CLR,,0.00,WeatherDisplay:10.37,2013-02-06 16:59:00,
2013-02-06 12:04:00,23.2,15.5,30.20,West,281,2.3,10.4,72,0.00,CLR,,0.00,WeatherDisplay:10.37,2013-02-06 17:04:00,
2013-02-06 12:09:00,23.1,14.8,30.20,NNW,329,1.7,4.6,70,0.00,CLR,,0.00,WeatherDisplay:10.37,2013-02-06 17:09:00,
2013-02-06 12:14:00,23.0,14.0,30.20,SW,223,2.8,5.8,68,0.00,CLR,,0.00,WeatherDisplay:10.37,2013-02-06 17:14:00,
2013-02-06 12:19:00,22.9,14.2,30.21,NW,325,0.0,3.5,69,0.00,CLR,,0.00,WeatherDisplay:10.37,2013-02-06 17:19:00,
2013-02-06 12:24:00,23.3,15.0,30.21,NNE,24,0.0,0.0,70,0.00,CLR,,0.00,WeatherDisplay:10.37,2013-02-06 17:24:00,
2013-02-06 12:29:00,23.4,14.0,30.21,North,5,1.6,3.5,67,0.00,CLR,,0.00,WeatherDisplay:10.37,2013-02-06 17:29:00,
2013-02-06 12:35:00,23.3,13.6,30.22,West,278,2.0,5.8,66,0.00,CLR,,0.00,WeatherDisplay:10.37,2013-02-06 17:35:00,
2013-02-06 12:40:00,22.9,13.2,30.22,West,278,2.6,4.6,66,0.00,CLR,,0.00,WeatherDisplay:10.37,2013-02-06 17:40:00,
2013-02-06 12:45:00,23.0,12.6,30.22,NW,318,2.1,6.9,64,0.00,CLR,,0.00,WeatherDisplay:10.37,2013-02-06 17:45:00,
2013-02-06 12:50:00,23.2,12.8,30.22,West,277,3.2,8.1,64,0.00,CLR,,0.00,WeatherDisplay:10.37,2013-02-06 17:50:00,
2013-02-06 12:55:00,23.3,12.9,30.22,North,360,1.7,3.5,64,0.00,CLR,,0.00,WeatherDisplay:10.37,2013-02-06 17:55:00,
2013-02-06 13:00:00,23.2,12.5,30.22,WSW,245,1.1,6.9,63,0.00,CLR,,0.00,WeatherDisplay:10.37,2013-02-06 18:00:00,
2013-02-06 13:06:00,23.3,12.2,30.22,WNW,296,2.5,5.8,62,0.00,CLR,,0.00,WeatherDisplay:10.37,2013-02-06 18:06:00,
2013-02-06 13:11:00,23.5,11.6,30.22,NNW,329,2.0,6.9,60,0.00,CLR,,0.00,WeatherDisplay:10.37,2013-02-06 18:11:00,
2013-02-06 13:16:00,23.4,10.8,30.22,NW,324,5.6,10.4,58,0.00,CLR,,0.00,WeatherDisplay:10.37,2013-02-06 18:16:00,
2013-02-06 13:21:00,22.8,9.8,30.22,NW,305,2.3,6.9,57,0.00,CLR,,0.00,WeatherDisplay:10.37,2013-02-06 18:21:00,
2013-02-06 13:26:00,22.6,9.6,30.23,WNW,294,3.3,11.5,57,0.00,CLR,,0.00,WeatherDisplay:10.37,2013-02-06 18:26:00,
2013-02-06 13:31:00,22.4,9.4,30.23,NW,304,1.7,4.6,57,0.00,CLR,,0.00,WeatherDisplay:10.37,2013-02-06 18:31:00,
2013-02-06 13:36:00,23.1,10.5,30.23,NW,310,4.8,9.2,58,0.00,CLR,,0.00,WeatherDisplay:10.37,2013-02-06 18:36:00,
2013-02-06 13:42:00,23.2,9.8,30.23,WNW,291,2.5,6.9,56,0.00,CLR,,0.00,WeatherDisplay:10.37,2013-02-06 18:42:00,
2013-02-06 13:47:00,23.8,10.8,30.23,North,349,0.9,4.6,57,0.00,CLR,,0.00,WeatherDisplay:10.37,2013-02-06 18:47:00,
2013-02-06 13:52:00,23.5,9.3,30.23,NW,322,3.7,6.9,54,0.00,CLR,,0.00,WeatherDisplay:10.37,2013-02-06 18:52:00,
2013-02-06 13:57:00,23.4,10.0,30.23,West,281,1.9,4.0,56,0.00,CLR,,0.00,WeatherDisplay:10.37,2013-02-06 18:57:00,
2013-02-06 14:03:00,23.5,10.1,30.23,NW,322,3.0,8.1,56,0.00,CLR,,0.00,WeatherDisplay:10.37,2013-02-06 19:03:00,
2013-02-06 14:08:00,23.5,10.1,30.24,West,262,1.1,3.5,56,0.00,CLR,,0.00,WeatherDisplay:10.37,2013-02-06 19:08:00,
2013-02-06 14:13:00,23.7,10.3,30.24,NW,316,2.2,4.6,56,0.00,CLR,,0.00,WeatherDisplay:10.37,2013-02-06 19:13:00,
2013-02-06 14:18:00,23.9,10.1,30.24,WSW,238,1.8,6.9,55,0.00,CLR,,0.00,WeatherDisplay:10.37,2013-02-06 19:18:00,
2013-02-06 14:24:00,24.2,10.3,30.24,West,268,2.8,4.0,55,0.00,CLR,,0.00,WeatherDisplay:10.37,2013-02-06 19:24:00,
2013-02-06 14:29:00,24.2,9.9,30.24,SW,233,3.1,6.9,54,0.00,CLR,,0.00,WeatherDisplay:10.37,2013-02-06 19:29:00,
2013-02-06 14:34:00,24.0,9.7,30.24,NNW,329,1.4,5.8,54,0.00,CLR,,0.00,WeatherDisplay:10.37,2013-02-06 19:34:00,
2013-02-06 14:39:00,24.2,10.3,30.24,NW,306,1.0,3.5,55,0.00,CLR,,0.00,WeatherDisplay:10.37,2013-02-06 19:39:00,
2013-02-06 14:45:00,24.4,9.7,30.24,WSW,252,2.9,4.6,53,0.00,CLR,,0.00,WeatherDisplay:10.37,2013-02-06 19:45:00,
2013-02-06 14:50:00,24.7,10.8,30.25,WNW,302,0.4,2.3,55,0.00,CLR,,0.00,WeatherDisplay:10.37,2013-02-06 19:50:00,
2013-02-06 14:55:00,25.2,10.4,30.25,NW,322,3.9,4.6,53,0.00,CLR,,0.00,WeatherDisplay:10.37,2013-02-06 19:55:00,
2013-02-06 15:00:00,25.2,10.0,30.25,West,262,1.8,4.6,52,0.00,CLR,,0.00,WeatherDisplay:10.37,2013-02-06 20:00:00,
2013-02-06 15:05:00,25.3,10.5,30.26,West,275,2.7,6.0,53,0.00,CLR,,0.00,WeatherDisplay:10.37,2013-02-06 20:05:00,
2013-02-06 15:10:00,25.0,10.3,30.26,North,355,2.0,2.3,53,0.00,CLR,,0.00,WeatherDisplay:10.37,2013-02-06 20:10:00,
2013-02-06 15:16:00,24.8,9.6,30.26,NW,320,4.6,6.9,52,0.00,CLR,,0.00,WeatherDisplay:10.37,2013-02-06 20:16:00,
2013-02-06 15:21:00,24.9,10.6,30.26,WSW,258,0.1,3.0,54,0.00,CLR,,0.00,WeatherDisplay:10.37,2013-02-06 20:21:00,
2013-02-06 15:26:00,24.9,10.2,30.26,North,355,3.3,6.9,53,0.00,CLR,,0.00,WeatherDisplay:10.37,2013-02-06 20:26:00,
2013-02-06 15:31:00,24.5,10.2,30.26,NW,311,1.8,4.0,54,0.00,CLR,,0.00,WeatherDisplay:10.37,2013-02-06 20:31:00,
2013-02-06 15:36:00,24.3,10.0,30.26,NNW,329,0.7,3.5,54,0.00,CLR,,0.00,WeatherDisplay:10.37,2013-02-06 20:36:00,
2013-02-06 15:42:00,24.4,10.1,30.27,SSW,213,2.0,3.5,54,0.00,CLR,,0.00,WeatherDisplay:10.37,2013-02-06 20:42:00,
2013-02-06 15:47:00,24.5,10.2,30.27,NW,314,0.6,3.5,54,0.00,CLR,,0.00,WeatherDisplay:10.37,2013-02-06 20:47:00,
2013-02-06 15:52:00,24.3,10.4,30.27,NNE,26,1.6,4.0,55,0.00,CLR,,0.00,WeatherDisplay:10.37,2013-02-06 20:52:00,
2013-02-06 15:57:00,24.1,10.2,30.27,NNE,18,0.7,3.5,55,0.00,CLR,,0.00,WeatherDisplay:10.37,2013-02-06 20:57:00,
2013-02-06 16:02:00,24.2,11.1,30.28,NNE,19,0.0,0.0,57,0.00,CLR,,0.00,WeatherDisplay:10.37,2013-02-06 21:02:00,
2013-02-06 16:08:00,24.3,10.8,30.28,NNW,332,0.1,1.1,56,0.00,CLR,,0.00,WeatherDisplay:10.37,2013-02-06 21:08:00,
2013-02-06 16:13:00,24.1,10.6,30.28,NW,311,3.5,5.8,56,0.00,CLR,,0.00,WeatherDisplay:10.37,2013-02-06 21:13:00,
2013-02-06 16:18:00,24.2,11.1,30.28,NNW,331,0.0,0.0,57,0.00,CLR,,0.00,WeatherDisplay:10.37,2013-02-06 21:18:00,
2013-02-06 16:23:00,23.9,10.1,30.28,North,349,0.0,3.5,55,0.00,CLR,,0.00,WeatherDisplay:10.37,2013-02-06 21:23:00,
2013-02-06 16:28:00,23.6,10.6,30.28,North,355,0.0,0.0,57,0.00,CLR,,0.00,WeatherDisplay:10.37,2013-02-06 21:28:00,
2013-02-06 16:34:00,23.5,10.5,30.28,North,355,0.4,3.5,57,0.00,CLR,,0.00,WeatherDisplay:10.37,2013-02-06 21:34:00,
2013-02-06 16:39:00,23.2,10.2,30.28,North,9,2.4,3.5,57,0.00,CLR,,0.00,WeatherDisplay:10.37,2013-02-06 21:39:00,
2013-02-06 16:44:00,22.9,10.3,30.29,NW,313,0.5,3.0,58,0.00,CLR,,0.00,WeatherDisplay:10.37,2013-02-06 21:44:00,
2013-02-06 16:49:00,22.7,10.1,30.29,NW,310,1.8,5.0,58,0.00,CLR,,0.00,WeatherDisplay:10.37,2013-02-06 21:49:00,
2013-02-06 16:54:00,22.5,9.9,30.29,NNW,327,3.8,6.9,58,0.00,CLR,,0.00,WeatherDisplay:10.37,2013-02-06 21:54:00,
2013-02-06 16:59:00,22.2,10.0,30.29,NNW,345,4.1,4.6,59,0.00,CLR,,0.00,WeatherDisplay:10.37,2013-02-06 21:59:00,
2013-02-06 17:05:00,22.1,10.7,30.29,North,355,0.0,0.0,61,0.00,CLR,,0.00,WeatherDisplay:10.37,2013-02-06 22:05:00,
2013-02-06 17:10:00,22.0,10.2,30.30,WNW,296,4.2,5.8,60,0.00,CLR,,0.00,WeatherDisplay:10.37,2013-02-06 22:10:00,
2013-02-06 17:15:00,21.6,9.8,30.30,NNW,345,3.4,4.6,60,0.00,CLR,,0.00,WeatherDisplay:10.37,2013-02-06 22:15:00,
2013-02-06 17:20:00,21.3,9.9,30.30,NW,321,0.0,3.5,61,0.00,CLR,,0.00,WeatherDisplay:10.37,2013-02-06 22:20:00,
2013-02-06 17:25:00,21.1,10.1,30.30,NNW,340,0.3,3.5,62,0.00,CLR,,0.00,WeatherDisplay:10.37,2013-02-06 22:25:00,
2013-02-06 17:30:00,20.9,9.9,30.30,NNW,345,1.5,0.0,62,0.00,CLR,,0.00,WeatherDisplay:10.37,2013-02-06 22:30:00,
2013-02-06 17:35:00,20.8,9.8,30.30,NW,322,0.0,0.0,62,0.00,CLR,,0.00,WeatherDisplay:10.37,2013-02-06 22:35:00,
2013-02-06 17:41:00,20.7,10.1,30.30,NW,322,0.0,0.0,63,0.00,CLR,,0.00,WeatherDisplay:10.37,2013-02-06 22:41:00,
2013-02-06 17:46:00,20.6,10.0,30.31,NW,322,0.0,0.0,63,0.00,CLR,,0.00,WeatherDisplay:10.37,2013-02-06 22:46:00,
2013-02-06 17:51:00,20.5,9.9,30.31,NNE,30,0.1,2.0,63,0.00,CLR,,0.00,WeatherDisplay:10.37,2013-02-06 22:51:00,
2013-02-06 17:56:00,20.4,10.1,30.31,NNW,329,0.0,0.0,64,0.00,CLR,,0.00,WeatherDisplay:10.37,2013-02-06 22:56:00,
2013-02-06 18:01:00,20.3,9.7,30.31,NW,315,0.0,0.0,63,0.00,CLR,,0.00,WeatherDisplay:10.37,2013-02-06 23:01:00,
2013-02-06 18:07:00,20.2,10.0,30.31,NW,313,0.3,2.3,64,0.00,CLR,,0.00,WeatherDisplay:10.37,2013-02-06 23:07:00,
2013-02-06 18:12:00,20.1,10.2,30.31,NNW,337,0.0,0.0,65,0.00,CLR,,0.00,WeatherDisplay:10.37,2013-02-06 23:12:00,
2013-02-06 18:17:00,20.1,9.9,30.31,NNW,337,0.0,0.0,64,0.00,CLR,,0.00,WeatherDisplay:10.37,2013-02-06 23:17:00,
2013-02-06 18:22:00,20.0,10.1,30.31,NNW,337,0.0,0.0,65,0.00,CLR,,0.00,WeatherDisplay:10.37,2013-02-06 23:22:00,
2013-02-06 18:27:00,20.0,10.1,30.32,NNW,337,0.0,0.0,65,0.00,CLR,,0.00,WeatherDisplay:10.37,2013-02-06 23:27:00,
2013-02-06 18:33:00,19.8,9.9,30.32,NNW,337,0.0,0.0,65,0.00,CLR,,0.00,WeatherDisplay:10.37,2013-02-06 23:33:00,
2013-02-06 18:38:00,19.7,9.8,30.32,NNW,337,0.0,0.0,65,0.00,CLR,,0.00,WeatherDisplay:10.37,2013-02-06 23:38:00,
2013-02-06 18:43:00,19.7,10.2,30.32,NNW,337,0.0,0.0,66,0.00,CLR,,0.00,WeatherDisplay:10.37,2013-02-06 23:43:00,
2013-02-06 18:48:00,19.5,10.0,30.32,NNW,337,0.0,0.0,66,0.00,CLR,,0.00,WeatherDisplay:10.37,2013-02-06 23:48:00,
2013-02-06 18:53:00,19.3,10.5,30.33,NNW,337,0.0,0.0,68,0.00,CLR,,0.00,WeatherDisplay:10.37,2013-02-06 23:53:00,
2013-02-06 18:58:00,19.3,10.5,30.33,NNW,337,0.0,0.0,68,0.00,CLR,,0.00,WeatherDisplay:10.37,2013-02-06 23:58:00,
2013-02-06 19:04:00,19.4,10.6,30.33,NNW,337,0.0,0.0,68,0.00,CLR,,0.00,WeatherDisplay:10.37,2013-02-07 00:04:00,
2013-02-06 19:09:00,19.5,10.6,30.33,NNW,337,0.0,0.0,68,0.00,CLR,,0.00,WeatherDisplay:10.37,2013-02-07 00:09:00,
2013-02-06 19:14:00,19.6,10.7,30.33,NNW,337,0.0,0.0,68,0.00,CLR,,0.00,WeatherDisplay:10.37,2013-02-07 00:14:00,
2013-02-06 19:19:00,19.7,11.2,30.33,NNW,337,0.0,0.0,69,0.00,CLR,,0.00,WeatherDisplay:10.37,2013-02-07 00:19:00,
2013-02-06 19:24:00,19.7,11.2,30.33,NNW,337,0.0,0.0,69,0.00,CLR,,0.00,WeatherDisplay:10.37,2013-02-07 00:24:00,
2013-02-06 19:30:00,19.7,11.2,30.34,NNW,337,0.0,0.0,69,0.00,CLR,,0.00,WeatherDisplay:10.37,2013-02-07 00:30:00,
2013-02-06 19:35:00,19.7,11.2,30.34,NNW,337,0.0,0.0,69,0.00,CLR,,0.00,WeatherDisplay:10.37,2013-02-07 00:35:00,
2013-02-06 19:40:00,19.7,11.5,30.34,NNW,337,0.0,0.0,70,0.00,CLR,,0.00,WeatherDisplay:10.37,2013-02-07 00:40:00,
2013-02-06 19:46:00,19.3,13.0,30.35,NNW,337,0.0,0.0,76,0.00,CLR,,0.00,WeatherDisplay:10.37,2013-02-07 00:46:00,
2013-02-06 19:51:00,18.9,11.7,30.35,NNW,337,0.0,0.0,73,0.00,CLR,,0.00,WeatherDisplay:10.37,2013-02-07 00:51:00,
2013-02-06 19:56:00,18.4,11.5,30.36,NNW,337,0.0,0.0,74,0.00,CLR,,0.00,WeatherDisplay:10.37,2013-02-07 00:56:00,
2013-02-06 20:01:00,18.0,11.4,30.36,NNW,337,0.0,0.0,75,0.00,CLR,,0.00,WeatherDisplay:10.37,2013-02-07 01:01:00,
2013-02-06 20:06:00,17.8,11.5,30.37,NNW,337,0.0,0.0,76,0.00,CLR,,0.00,WeatherDisplay:10.37,2013-02-07 01:06:00,
2013-02-06 20:12:00,17.7,11.7,30.37,NNW,337,0.0,0.0,77,0.00,CLR,,0.00,WeatherDisplay:10.37,2013-02-07 01:12:00,
2013-02-06 20:17:00,17.7,11.7,30.37,NNW,337,0.0,0.0,77,0.00,CLR,,0.00,WeatherDisplay:10.37,2013-02-07 01:17:00,
2013-02-06 20:22:00,17.8,11.8,30.37,NNW,337,0.0,0.0,77,0.00,CLR,,0.00,WeatherDisplay:10.37,2013-02-07 01:22:00,
2013-02-06 20:27:00,17.9,11.6,30.37,NNW,337,0.0,0.0,76,0.00,CLR,,0.00,WeatherDisplay:10.37,2013-02-07 01:27:00,
2013-02-06 20:32:00,18.1,11.8,30.37,NNW,337,0.0,0.0,76,0.00,CLR,,0.00,WeatherDisplay:10.37,2013-02-07 01:32:00,
2013-02-06 20:38:00,18.1,11.8,30.37,NNW,337,0.0,0.0,76,0.00,CLR,,0.00,WeatherDisplay:10.37,2013-02-07 01:38:00,
2013-02-06 20:43:00,17.7,11.1,30.38,NNW,329,0.0,0.0,75,0.00,CLR,,0.00,WeatherDisplay:10.37,2013-02-07 01:43:00,
2013-02-06 20:48:00,17.6,11.0,30.38,NW,313,0.0,0.0,75,0.00,CLR,,0.00,WeatherDisplay:10.37,2013-02-07 01:48:00,
2013-02-06 20:53:00,17.6,11.0,30.38,NW,313,0.0,0.0,75,0.00,CLR,,0.00,WeatherDisplay:10.37,2013-02-07 01:53:00,
2013-02-06 20:58:00,17.8,11.2,30.38,NW,313,0.0,0.0,75,0.00,CLR,,0.00,WeatherDisplay:10.37,2013-02-07 01:58:00,
2013-02-06 21:04:00,18.0,11.4,30.37,NW,313,0.0,0.0,75,0.00,CLR,,0.00,WeatherDisplay:10.37,2013-02-07 02:04:00,
2013-02-06 21:09:00,18.2,11.6,30.37,NW,313,0.0,0.0,75,0.00,CLR,,0.00,WeatherDisplay:10.37,2013-02-07 02:09:00,
2013-02-06 21:14:00,18.5,11.9,30.37,NW,313,0.0,0.0,75,0.00,CLR,,0.00,WeatherDisplay:10.37,2013-02-07 02:14:00,
2013-02-06 21:19:00,18.5,12.5,30.37,NW,313,0.0,0.0,77,0.00,CLR,,0.00,WeatherDisplay:10.37,2013-02-07 02:19:00,
2013-02-06 21:24:00,18.4,12.4,30.37,NW,313,0.0,0.0,77,0.00,CLR,,0.00,WeatherDisplay:10.37,2013-02-07 02:24:00,
2013-02-06 21:29:00,18.2,11.9,30.37,NW,313,0.0,0.0,76,0.00,CLR,,0.00,WeatherDisplay:10.37,2013-02-07 02:29:00,
2013-02-06 21:35:00,18.1,11.8,30.37,NW,313,0.0,0.0,76,0.00,CLR,,0.00,WeatherDisplay:10.37,2013-02-07 02:35:00,
2013-02-06 21:40:00,17.9,11.6,30.37,NW,313,0.0,0.0,76,0.00,CLR,,0.00,WeatherDisplay:10.37,2013-02-07 02:40:00,
2013-02-06 21:45:00,17.7,11.4,30.37,NW,313,0.0,0.0,76,0.00,CLR,,0.00,WeatherDisplay:10.37,2013-02-07 02:45:00,
2013-02-06 21:50:00,17.7,11.4,30.37,NW,313,0.0,0.0,76,0.00,CLR,,0.00,WeatherDisplay:10.37,2013-02-07 02:50:00,
2013-02-06 21:55:00,17.5,11.2,30.37,NW,313,0.0,0.0,76,0.00,CLR,,0.00,WeatherDisplay:10.37,2013-02-07 02:55:00,
2013-02-06 22:00:00,17.2,10.6,30.38,NW,313,0.0,0.0,75,0.00,CLR,,0.00,WeatherDisplay:10.37,2013-02-07 03:00:00,
2013-02-06 22:06:00,16.8,10.5,30.38,NW,313,0.0,0.0,76,0.00,CLR,,0.00,WeatherDisplay:10.37,2013-02-07 03:06:00,
2013-02-06 22:11:00,16.5,10.3,30.38,NW,313,0.0,0.0,76,0.00,CLR,,0.00,WeatherDisplay:10.37,2013-02-07 03:11:00,
2013-02-06 22:16:00,16.4,10.4,30.37,NW,313,0.0,0.0,77,0.00,CLR,,0.00,WeatherDisplay:10.37,2013-02-07 03:16:00,
2013-02-06 22:21:00,16.4,10.7,30.37,NW,313,0.0,0.0,78,0.00,CLR,,0.00,WeatherDisplay:10.37,2013-02-07 03:21:00,
2013-02-06 22:26:00,16.3,10.6,30.37,NW,313,0.0,0.0,78,0.00,CLR,,0.00,WeatherDisplay:10.37,2013-02-07 03:26:00,
2013-02-06 22:32:00,16.1,10.7,30.38,NW,313,0.0,0.0,79,0.00,CLR,,0.00,WeatherDisplay:10.37,2013-02-07 03:32:00,
2013-02-06 22:37:00,16.0,10.6,30.37,NW,313,0.0,0.0,79,0.00,,,0.00,WeatherDisplay:10.37,2013-02-07 03:37:00,
2013-02-06 22:42:00,16.0,10.6,30.37,NW,313,0.0,0.0,79,0.00,,,0.00,WeatherDisplay:10.37,2013-02-07 03:42:00,
2013-02-06 22:47:00,16.1,10.7,30.37,NW,313,0.0,0.0,79,0.00,,,0.00,WeatherDisplay:10.37,2013-02-07 03:47:00,
2013-02-06 22:52:00,16.1,11.0,30.38,NW,313,0.0,0.0,80,0.00,,,0.00,WeatherDisplay:10.37,2013-02-07 03:52:00,
2013-02-06 22:58:00,16.0,10.6,30.38,NW,313,0.0,0.0,79,0.00,,,0.00,WeatherDisplay:10.37,2013-02-07 03:58:00,
2013-02-06 23:03:00,15.7,10.6,30.38,NW,313,0.0,0.0,80,0.00,,,0.00,WeatherDisplay:10.37,2013-02-07 04:03:00,
2013-02-06 23:08:00,15.6,10.8,30.38,NW,313,0.0,0.0,81,0.00,,,0.00,WeatherDisplay:10.37,2013-02-07 04:08:00,
2013-02-06 23:13:00,15.3,10.5,30.38,NW,313,0.0,0.0,81,0.00,,,0.00,WeatherDisplay:10.37,2013-02-07 04:13:00,
2013-02-06 23:18:00,15.2,10.4,30.38,NW,313,0.0,0.0,81,0.00,,,0.00,WeatherDisplay:10.37,2013-02-07 04:18:00,
2013-02-06 23:24:00,15.1,10.6,30.39,NW,313,0.0,0.0,82,0.00,,,0.00,WeatherDisplay:10.37,2013-02-07 04:24:00,
2013-02-06 23:29:00,14.9,10.4,30.39,NW,313,0.0,0.0,82,0.00,,,0.00,WeatherDisplay:10.37,2013-02-07 04:29:00,
2013-02-06 23:34:00,14.9,10.4,30.39,NW,313,0.0,0.0,82,0.00,,,0.00,WeatherDisplay:10.37,2013-02-07 04:34:00,
2013-02-06 23:39:00,14.9,10.4,30.38,NW,313,0.0,0.0,82,0.00,,,0.00,WeatherDisplay:10.37,2013-02-07 04:39:00,
2013-02-06 23:45:00,14.9,10.4,30.38,NW,313,0.0,0.0,82,0.00,,,0.00,WeatherDisplay:10.37,2013-02-07 04:45:00,
2013-02-06 23:50:00,15.0,10.5,30.37,NW,313,0.0,0.0,82,0.00,,,0.00,WeatherDisplay:10.37,2013-02-07 04:50:00,
2013-02-06 23:56:00,15.0,10.5,30.37,NW,313,0.0,0.0,82,0.00,,,0.00,WeatherDisplay:10.37,2013-02-07 04:56:00,